Time;durP1;ratioP1;P1;durP2;ratioP2;P2;SDS_P1;SDS_P2;PMS_P1;PMS_P2;Temp;Humidity;BMP_temperature;BMP_pressure;BME280_temperature;BME280_humidity;BME280_pressure;Samples;Min_cycle;Max_cycle;Signal;HPM_P1;HPM_P2
2022/11/16 00:02:05;;;;;;;13.73;8.75;;;;;;;-143.48;99.74;77599.72;5055785;28;20079;-75
2022/11/16 00:04:30;;;;;;;13.27;8.18;;;;;;;-143.48;100.00;77589.81;5056847;28;20021;-74
2022/11/16 00:06:55;;;;;;;11.68;8.50;;;;;;;-143.48;99.46;77589.81;5056685;28;20051;-75
2022/11/16 00:09:20;;;;;;;12.85;8.80;;;;;;;-143.48;99.66;77599.72;5056708;28;20021;-74
2022/11/16 00:11:50;;;;;;;10.85;7.97;;;;;;;-143.48;99.91;77593.78;5055408;28;20063;-75
2022/11/16 00:14:15;;;;;;;11.63;8.18;;;;;;;-143.48;99.96;77603.69;5056466;28;20029;-75
2022/11/16 00:16:41;;;;;;;13.23;8.13;;;;;;;-143.48;99.43;77593.78;5056751;28;20090;-75
2022/11/16 00:19:07;;;;;;;12.25;8.32;;;;;;;-143.48;99.50;77587.81;5055273;28;20209;-75
2022/11/16 00:21:33;;;;;;;11.57;8.32;;;;;;;-143.48;99.15;77601.72;5056559;28;20059;-74
2022/11/16 00:23:58;;;;;;;12.07;8.35;;;;;;;-143.48;99.24;77603.69;5055249;28;20013;-75
2022/11/16 00:26:23;;;;;;;11.35;8.38;;;;;;;-143.48;99.39;77601.72;5055280;28;20028;-74
2022/11/16 00:28:51;;;;;;;10.27;8.07;;;;;;;-143.48;99.45;77593.78;5055238;28;20029;-75
2022/11/16 00:31:16;;;;;;;12.65;8.35;;;;;;;-143.48;99.40;77597.75;5055100;28;20052;-74
2022/11/16 00:33:42;;;;;;;12.10;8.32;;;;;;;-143.48;99.34;77591.78;5056462;28;20060;-74
2022/11/16 00:36:10;;;;;;;11.38;8.20;;;;;;;-143.48;99.27;77589.81;5056346;28;20032;-75
2022/11/16 00:38:35;;;;;;;10.38;7.95;;;;;;;-143.48;99.20;77593.78;5055904;28;20053;-75
2022/11/16 00:41:00;;;;;;;12.15;7.97;;;;;;;-143.48;99.57;77587.81;5056205;28;20392;-75
2022/11/16 00:43:26;;;;;;;12.98;8.20;;;;;;;-143.48;99.21;77591.78;5056026;28;20021;-75
2022/11/16 00:45:51;;;;;;;10.77;8.13;;;;;;;-143.48;99.45;77583.84;5057779;28;20021;-74
2022/11/16 00:48:17;;;;;;;12.07;8.27;;;;;;;-143.48;99.24;77585.84;5056122;28;20037;-73
2022/11/16 00:50:43;;;;;;;12.40;8.45;;;;;;;-143.48;99.32;77581.88;5054831;28;20395;-75
2022/11/16 00:53:11;;;;;;;11.55;8.07;;;;;;;-143.48;99.25;77575.94;5054511;28;20033;-75
2022/11/16 00:55:37;;;;;;;12.63;8.10;;;;;;;-143.48;99.30;77573.94;5054581;28;20036;-75
2022/11/16 00:58:02;;;;;;;11.90;8.52;;;;;;;-143.48;99.33;77579.91;5055826;28;20025;-75
2022/11/16 01:00:27;;;;;;;11.70;8.32;;;;;;;-143.48;99.48;77573.94;5054181;28;20491;-75
2022/11/16 01:02:53;;;;;;;12.20;8.80;;;;;;;-143.48;99.54;77575.94;5055799;28;20024;-75
2022/11/16 01:05:20;;;;;;;11.27;8.38;;;;;;;-143.48;99.21;77575.94;5055811;28;20529;-74
2022/11/16 01:07:45;;;;;;;12.25;8.35;;;;;;;-143.48;99.44;77577.91;5056988;28;20021;-74
2022/11/16 01:10:13;;;;;;;12.32;8.93;;;;;;;-143.48;99.45;77577.91;5054364;28;20036;-74
2022/11/16 01:12:38;;;;;;;11.00;8.82;;;;;;;-143.48;99.58;77575.94;5055620;28;20025;-74
2022/11/16 01:15:07;;;;;;;10.45;8.27;;;;;;;-143.48;99.59;77575.94;5055751;28;20104;-75
2022/11/16 01:17:32;;;;;;;10.68;8.50;;;;;;;-143.48;99.24;77577.91;5054152;28;20078;-74
2022/11/16 01:19:58;;;;;;;12.63;8.48;;;;;;;-143.48;99.18;77568.00;5053747;28;20345;-75
2022/11/16 01:22:23;;;;;;;11.18;8.60;;;;;;;-143.48;99.60;77569.97;5055344;28;20025;-74
2022/11/16 01:24:48;;;;;;;12.15;8.52;;;;;;;-143.48;99.56;77573.94;5055372;28;20127;-74
2022/11/16 01:27:14;;;;;;;11.68;8.25;;;;;;;-143.48;99.25;77566.00;5055384;28;20037;-74
2022/11/16 01:29:39;;;;;;;12.60;8.80;;;;;;;-143.48;99.27;77568.00;5053942;28;20468;-74
2022/11/16 01:32:04;;;;;;;12.13;8.48;;;;;;;-143.48;99.48;77564.03;5055210;28;20025;-74
2022/11/16 01:34:30;;;;;;;11.20;8.90;;;;;;;-143.48;99.33;77562.06;5054384;28;20095;-74
2022/11/16 01:36:55;;;;;;;13.63;9.00;;;;;;;-143.48;99.30;77556.09;5053820;28;20029;-74
2022/11/16 01:39:20;;;;;;;12.90;8.32;;;;;;;-143.48;99.53;77554.13;5053728;28;20053;-74
2022/11/16 01:41:46;;;;;;;13.10;8.68;;;;;;;-143.48;99.32;77552.13;5054987;28;20100;-74
2022/11/16 01:44:14;;;;;;;14.40;8.57;;;;;;;-143.48;99.36;77552.13;5053690;28;20043;-74
2022/11/16 01:46:41;;;;;;;14.55;9.23;;;;;;;-143.48;99.48;77556.09;5054941;28;20029;-74
2022/11/16 01:49:12;;;;;;;13.85;9.40;;;;;;;-143.48;99.29;77556.09;5052398;28;20499;-74
2022/11/16 01:51:41;;;;;;;12.45;8.80;;;;;;;-143.48;99.66;77556.09;5052939;28;20079;-73
2022/11/16 01:54:11;;;;;;;12.07;8.60;;;;;;;-143.48;99.25;77546.19;5054729;28;20033;-74
2022/11/16 01:56:38;;;;;;;12.20;8.57;;;;;;;-143.48;99.52;77546.19;5053228;28;20021;-74
2022/11/16 01:59:04;;;;;;;15.60;9.57;;;;;;;-143.48;99.62;77550.16;5051236;28;20021;-74
2022/11/16 02:01:29;;;;;;;11.88;8.95;;;;;;;-143.48;100.00;77550.16;5052574;28;20472;-74
2022/11/16 02:03:55;;;;;;;11.70;8.80;;;;;;;-143.48;99.96;77544.19;5052414;28;20039;-74
2022/11/16 02:06:26;;;;;;;12.82;9.10;;;;;;;-143.48;99.99;77546.19;5052354;28;20025;-75
2022/11/16 02:12:16;;;;;;;14.18;8.95;;;;;;;-143.48;100.00;77540.25;5052022;28;20047;-74
2022/11/16 02:14:44;;;;;;;14.20;9.50;;;;;;;-143.48;100.00;77544.19;5053047;28;20028;-73
2022/11/16 02:17:31;;;;;;;11.27;8.52;;;;;;;-143.48;100.00;77540.25;5054297;28;20044;-73
2022/11/16 02:20:13;;;;;;;12.85;9.18;;;;;;;-143.48;100.00;77536.28;5054306;28;20021;-73
2022/11/16 02:23:08;;;;;;;11.80;8.93;;;;;;;-143.48;99.74;77540.25;5054333;28;20567;-73
2022/11/16 02:25:50;;;;;;;10.88;8.50;;;;;;;-143.48;99.76;77532.31;5052880;28;20035;-73
2022/11/16 02:28:26;;;;;;;16.17;9.27;;;;;;;-143.48;99.63;77524.38;5054175;28;20151;-74
2022/11/16 02:30:54;;;;;;;11.32;8.50;;;;;;;-143.48;99.48;77530.31;5054102;28;20029;-73
2022/11/16 02:33:26;;;;;;;16.05;8.63;;;;;;;-143.48;99.27;77518.44;5053954;28;20108;-73
2022/11/16 02:35:57;;;;;;;12.65;8.88;;;;;;;-143.48;98.71;77532.31;5054008;28;20067;-73
2022/11/16 02:38:27;;;;;;;11.77;8.90;;;;;;;-143.48;98.69;77536.28;5052650;28;20049;-73
2022/11/16 02:41:00;;;;;;;12.90;9.00;;;;;;;-143.48;98.89;77528.34;5052675;28;20127;-73
2022/11/16 02:43:34;;;;;;;11.40;8.60;;;;;;;-143.48;98.96;77540.25;5053940;28;20075;-73
2022/11/16 02:46:04;;;;;;;12.80;9.38;;;;;;;-143.48;98.80;77532.31;5052947;28;20139;-73
2022/11/16 02:48:35;;;;;;;12.82;9.27;;;;;;;-143.48;98.73;77540.25;5053677;28;20036;-73
2022/11/16 02:51:01;;;;;;;15.35;9.57;;;;;;;-143.48;98.96;77534.28;5053589;28;20465;-72
2022/11/16 02:53:27;;;;;;;13.30;9.77;;;;;;;-143.48;98.69;77530.31;5052294;28;20036;-73
2022/11/16 02:55:52;;;;;;;12.90;9.48;;;;;;;-143.48;98.76;77534.28;5053667;28;20032;-72
2022/11/16 02:58:22;;;;;;;15.63;9.65;;;;;;;-143.48;98.60;77526.34;5053686;28;20021;-72
2022/11/16 03:00:59;;;;;;;12.60;9.20;;;;;;;-143.48;98.63;77540.25;5052297;28;20116;-73
2022/11/16 03:03:51;;;;;;;14.32;10.10;;;;;;;-143.48;98.70;77528.34;5053562;28;20108;-73
2022/11/16 03:06:28;;;;;;;14.48;9.48;;;;;;;-143.48;98.55;77538.25;5054169;28;20504;-72
2022/11/16 03:09:03;;;;;;;13.43;10.10;;;;;;;-143.48;98.85;77530.31;5053586;28;20032;-72
2022/11/16 03:14:19;;;;;;;14.25;9.68;;;;;;;-143.48;98.58;77534.28;5053375;28;20182;-72
2022/11/16 03:16:52;;;;;;;15.68;10.43;;;;;;;-143.48;98.42;77534.28;5053349;28;20031;-72
2022/11/16 03:19:21;;;;;;;;;;;;;;;-143.48;98.70;77536.28;5053646;28;20399;-73
2022/11/16 03:21:50;;;;;;;13.65;9.90;;;;;;;-143.48;98.91;77534.28;5053152;28;19913;-71
2022/11/16 03:24:16;;;;;;;15.50;10.02;;;;;;;-143.48;98.63;77530.31;5052292;28;20472;-72
2022/11/16 03:27:00;;;;;;;12.90;10.13;;;;;;;-143.48;98.60;77536.28;5053251;28;20029;-72
2022/11/16 03:29:30;;;;;;;14.90;10.13;;;;;;;-143.48;98.71;77538.25;5053434;28;20032;-72
2022/11/16 03:32:02;;;;;;;18.63;10.40;;;;;;;-143.48;98.70;77538.25;5053165;28;20021;-72
2022/11/16 03:34:32;;;;;;;15.20;11.03;;;;;;;-143.48;98.68;77546.19;5052974;28;20021;-72
2022/11/16 03:36:59;;;;;;;15.95;10.43;;;;;;;-143.48;98.86;77544.19;5051795;28;20283;-72
2022/11/16 03:39:37;;;;;;;13.25;10.30;;;;;;;-143.48;98.81;77546.19;5052904;28;20072;-72
2022/11/16 03:42:10;;;;;;;14.35;10.52;;;;;;;-143.48;98.88;77538.25;5053164;28;20074;-73
2022/11/16 03:44:37;;;;;;;;;;;;;;;-143.48;98.32;77550.16;5053483;28;20025;-72
2022/11/16 03:47:03;;;;;;;13.65;9.38;;;;;;;-143.48;98.29;77558.09;5053091;28;19908;-72
2022/11/16 03:49:31;;;;;;;14.88;10.27;;;;;;;-143.48;98.27;77556.09;5053039;28;20110;-72
2022/11/16 03:51:57;;;;;;;21.33;10.32;;;;;;;-143.48;98.02;77552.13;5053200;28;20040;-72
2022/11/16 03:54:22;;;;;;;16.20;10.18;;;;;;;-143.48;98.25;77558.09;5051674;28;20476;-71
2022/11/16 03:56:48;;;;;;;15.82;10.00;;;;;;;-143.48;98.35;77568.00;5052893;28;20031;-72
2022/11/16 03:59:13;;;;;;;12.18;9.15;;;;;;;-143.48;97.95;77571.97;5051614;28;20036;-72
2022/11/16 04:01:38;;;;;;;14.02;9.32;;;;;;;-143.48;97.67;77571.97;5052950;28;20427;-72
2022/11/16 04:04:03;;;;;;;12.95;9.25;;;;;;;-143.48;97.73;77575.94;5053004;28;20064;-72
2022/11/16 04:25:49;;;;;;;12.77;9.02;;;;;;;-143.48;97.50;77585.84;5053127;28;20059;-72
2022/11/16 04:28:18;;;;;;;14.40;9.05;;;;;;;-143.48;97.29;77581.88;5052653;28;20071;-72
2022/11/16 04:39:03;;;;;;;11.65;8.35;;;;;;;-143.48;97.60;77599.72;5056121;28;20048;-72
2022/11/16 04:44:13;;;;;;;16.05;8.30;;;;;;;-143.48;97.17;77623.50;5056177;28;20028;-72
2022/11/16 04:49:22;;;;;;;13.77;7.95;;;;;;;-143.48;97.04;77623.50;5056204;28;20511;-72
2022/11/16 04:51:48;;;;;;;12.50;7.53;;;;;;;-143.48;96.93;77617.56;5056118;28;20049;-72
2022/11/16 04:54:13;;;;;;;10.55;7.20;;;;;;;-143.48;96.70;77615.59;5055961;28;20111;-72
2022/11/16 04:56:39;;;;;;;10.63;7.20;;;;;;;-143.48;96.37;77625.50;5055871;28;20036;-72
2022/11/16 04:59:04;;;;;;;11.43;7.45;;;;;;;-143.48;96.42;77627.47;5055984;28;20032;-72
2022/11/16 05:04:13;;;;;;;15.10;7.63;;;;;;;-143.48;96.41;77627.47;5057280;28;20441;-72
2022/11/16 05:06:38;;;;;;;11.25;7.20;;;;;;;-143.48;96.52;77617.56;5054539;28;20108;-72
2022/11/16 05:09:04;;;;;;;9.73;6.78;;;;;;;-143.48;96.34;77625.50;5054476;28;20028;-72
2022/11/16 05:11:29;;;;;;;13.68;7.80;;;;;;;-143.48;96.42;77625.50;5055769;28;20036;-72
2022/11/16 05:13:54;;;;;;;13.13;7.47;;;;;;;-143.48;96.08;77619.56;5055509;28;20036;-73
2022/11/16 05:16:20;;;;;;;14.82;7.97;;;;;;;-143.48;96.22;77631.44;5055562;28;20017;-72
2022/11/16 05:20:59;;;;;;;18.90;7.63;;;;;;;-143.48;96.21;77635.41;5054390;28;20029;-73
2022/11/16 05:21:30;;;;;;;14.02;6.93;;;;;;;-143.48;95.99;77633.44;5055285;28;20037;-72
2022/11/16 05:26:39;;;;;;;14.43;7.70;;;;;;;-143.48;96.25;77647.31;5055640;28;20048;-73
2022/11/16 05:29:04;;;;;;;13.63;7.57;;;;;;;-143.48;96.48;77645.31;5055293;28;20392;-73
2022/11/16 05:31:30;;;;;;;13.05;7.80;;;;;;;-143.48;96.37;77655.25;5055271;28;20032;-73
2022/11/16 05:33:55;;;;;;;12.55;7.90;;;;;;;-143.48;96.68;77653.25;5053718;28;20025;-73
2022/11/16 05:36:21;;;;;;;12.77;7.75;;;;;;;-143.48;96.60;77655.25;5056575;28;20059;-75
2022/11/16 05:38:46;;;;;;;13.88;7.95;;;;;;;-143.48;96.56;77661.19;5056492;28;20614;-75
2022/11/16 05:41:12;;;;;;;11.63;7.75;;;;;;;-143.48;96.45;77655.25;5055414;28;20357;-72
2022/11/16 05:43:37;;;;;;;12.93;8.30;;;;;;;-143.48;96.24;77663.19;5054963;28;20048;-72
2022/11/16 05:46:02;;;;;;;10.98;8.00;;;;;;;-143.48;96.77;77675.06;5054262;28;20025;-72
2022/11/16 05:48:27;;;;;;;13.55;8.10;;;;;;;-143.48;96.95;77673.09;5053287;28;20558;-72
2022/11/16 05:50:57;;;;;;;15.50;8.20;;;;;;;-143.48;96.81;77681.03;5054746;28;20029;-71
2022/11/16 05:53:23;;;;;;;13.70;8.52;;;;;;;-143.48;96.80;77686.97;5054952;28;20169;-74
2022/11/16 05:55:48;;;;;;;14.70;8.23;;;;;;;-143.48;97.01;77690.94;5054617;28;20040;-71
2022/11/16 05:58:13;;;;;;;17.92;9.20;;;;;;;-143.48;97.15;77694.91;5054736;28;20024;-73
2022/11/16 06:00:39;;;;;;;18.35;8.60;;;;;;;-143.48;96.99;77690.94;5054717;28;20032;-73
2022/11/16 06:03:04;;;;;;;14.50;9.00;;;;;;;-143.48;96.65;77692.91;5054719;28;20021;-73
2022/11/16 06:05:29;;;;;;;12.02;8.35;;;;;;;-143.48;96.70;77694.91;5053295;28;20028;-73
2022/11/16 06:07:54;;;;;;;16.50;8.82;;;;;;;-143.48;96.51;77704.81;5054521;28;20410;-73
2022/11/16 06:10:20;;;;;;;14.00;8.45;;;;;;;-143.48;96.73;77708.78;5058058;28;20307;-73
2022/11/16 06:12:45;;;;;;;14.63;8.07;;;;;;;-143.48;96.46;77698.88;5057880;28;20370;-73
2022/11/16 06:15:10;;;;;;;15.90;8.20;;;;;;;-143.48;96.54;77716.72;5054605;28;20116;-73
2022/11/16 06:17:35;;;;;;;17.33;8.95;;;;;;;-143.48;96.52;77710.75;5052960;28;20071;-73
2022/11/16 06:20:01;;;;;;;16.40;8.88;;;;;;;-143.48;96.39;77708.78;5053124;28;20119;-73
2022/11/16 06:22:26;;;;;;;17.13;8.50;;;;;;;-143.48;96.05;77712.75;5054446;28;20033;-74
2022/11/16 06:24:51;;;;;;;13.93;8.30;;;;;;;-143.48;96.27;77720.69;5055856;28;20484;-74
2022/11/16 06:27:16;;;;;;;13.30;7.78;;;;;;;-143.48;95.92;77712.75;5054836;28;20033;-71
2022/11/16 06:29:42;;;;;;;14.85;7.68;;;;;;;-143.48;95.48;77726.63;5054273;28;20021;-71
2022/11/16 06:32:07;;;;;;;16.35;7.03;;;;;;;-143.48;95.12;77732.56;5057129;28;20207;-72
2022/11/16 06:34:32;;;;;;;15.35;6.68;;;;;;;-143.48;95.03;77730.59;5054020;28;20392;-73
2022/11/16 06:36:57;;;;;;;12.73;6.60;;;;;;;-143.48;94.21;77734.56;5052503;28;20024;-74
2022/11/16 06:39:23;;;;;;;10.40;6.85;;;;;;;-143.48;94.38;77756.38;5053656;28;20160;-71
2022/11/16 06:41:48;;;;;;;13.88;6.50;;;;;;;-143.48;94.21;77752.41;5053874;28;20486;-73
2022/11/16 06:44:13;;;;;;;11.68;6.35;;;;;;;-143.48;94.21;77758.34;5052735;28;20020;-73
2022/11/16 06:46:38;;;;;;;13.27;6.47;;;;;;;-143.48;93.71;77760.34;5054301;28;20025;-73
2022/11/16 06:49:04;;;;;;;15.50;6.32;;;;;;;-143.48;93.61;77778.19;5052069;28;20048;-73
2022/11/16 06:51:29;;;;;;;12.82;6.57;;;;;;;-143.48;93.89;77770.25;5051677;28;20047;-73
2022/11/16 06:53:54;;;;;;;12.65;6.75;;;;;;;-143.48;93.91;77780.16;5051714;28;20104;-74
2022/11/16 06:56:20;;;;;;;13.32;6.78;;;;;;;-143.48;94.16;77786.13;5050415;28;20079;-73
2022/11/16 06:58:45;;;;;;;16.38;7.22;;;;;;;-143.48;94.51;77796.03;5051320;28;20096;-73
2022/11/16 07:01:11;;;;;;;16.75;7.15;;;;;;;-143.48;94.66;77800.00;5051651;28;20021;-73
2022/11/16 07:03:37;;;;;;;10.55;6.20;;;;;;;-143.48;94.40;77805.94;5050280;28;20021;-73
2022/11/16 07:06:10;;;;;;;14.20;6.32;;;;;;;-143.48;94.40;77794.03;5050185;28;20392;-73
2022/11/16 07:08:35;;;;;;;;;;;;;;;-143.48;94.08;77803.97;5052416;28;20025;-73
2022/11/16 07:11:03;;;;;;;16.45;6.30;;;;;;;-143.48;93.87;77813.88;5050522;28;19978;-73
2022/11/16 07:13:31;;;;;;;16.63;6.40;;;;;;;-143.48;93.86;77823.78;5051576;28;20029;-73
2022/11/16 07:16:07;;;;;;;12.77;5.88;;;;;;;-143.48;94.03;77835.69;5053383;28;20116;-73
2022/11/16 07:18:37;;;;;;;16.67;6.10;;;;;;;-143.48;93.61;77835.69;5054800;28;20033;-73
2022/11/16 07:21:11;;;;;;;16.45;6.70;;;;;;;-143.48;94.09;77853.53;5053744;28;20029;-73
2022/11/16 07:23:37;;;;;;;11.18;6.13;;;;;;;-143.48;94.10;77845.59;5053486;28;20021;-75
2022/11/16 07:26:04;;;;;;;11.40;5.93;;;;;;;-143.48;93.43;77843.63;5052586;28;20510;-73
2022/11/16 07:28:29;;;;;;;11.80;6.10;;;;;;;-143.48;93.09;77847.59;5054612;28;20159;-73
2022/11/16 07:31:03;;;;;;;11.23;5.80;;;;;;;-143.48;92.97;77837.66;5052635;28;20051;-73
2022/11/16 07:33:28;;;;;;;15.00;6.57;;;;;;;-143.48;92.20;77855.50;5051549;28;20051;-73
2022/11/16 07:35:59;;;;;;;16.55;6.10;;;;;;;-143.48;91.96;77849.56;5051844;28;20016;-73
2022/11/16 07:38:25;;;;;;;13.82;6.15;;;;;;;-143.48;91.83;77855.50;5052984;28;20047;-74
2022/11/16 07:40:50;;;;;;;11.85;5.13;;;;;;;-143.48;91.44;77853.53;5053444;28;20037;-73
2022/11/16 07:43:15;;;;;;;25.42;7.30;;;;;;;-143.48;92.07;77847.59;5052658;28;20021;-75
2022/11/16 07:45:40;;;;;;;17.33;6.25;;;;;;;-143.48;91.64;77861.47;5051126;28;20033;-72
2022/11/16 07:48:06;;;;;;;16.52;6.45;;;;;;;-143.48;91.55;77855.50;5050740;28;20098;-73
2022/11/16 07:50:31;;;;;;;12.90;5.80;;;;;;;-143.48;91.08;77869.41;5051039;28;20112;-73
2022/11/16 07:52:56;;;;;;;15.45;6.00;;;;;;;-143.48;90.89;77871.38;5051047;28;20138;-74
2022/11/16 07:55:24;;;;;;;12.13;5.18;;;;;;;-143.48;90.93;77875.34;5055741;28;20025;-74
2022/11/16 07:57:49;;;;;;;13.48;5.93;;;;;;;-143.48;90.38;77869.41;5058682;28;20028;-73
2022/11/16 08:00:15;;;;;;;16.55;5.68;;;;;;;-143.48;90.26;77869.41;5050098;28;20376;-73
2022/11/16 08:02:40;;;;;;;12.20;5.68;;;;;;;-143.48;90.40;77857.50;5058238;28;20021;-72
2022/11/16 08:05:06;;;;;;;16.38;5.75;;;;;;;-143.48;90.13;77869.41;5058765;28;20427;-73
2022/11/16 08:07:33;;;;;;;15.50;5.60;;;;;;;-143.48;89.79;77869.41;5053108;28;20036;-72
2022/11/16 08:09:58;;;;;;;14.60;5.40;;;;;;;-143.48;90.04;77863.44;5054742;28;20033;-73
2022/11/16 08:12:23;;;;;;;13.85;5.10;;;;;;;-143.48;89.87;77865.44;5055740;28;20028;-73
2022/11/16 08:14:49;;;;;;;9.45;4.97;;;;;;;-143.48;89.99;77877.31;5055735;28;20550;-74
2022/11/16 08:17:14;;;;;;;14.93;5.13;;;;;;;-143.48;90.42;77875.34;5055359;28;20492;-73
2022/11/16 08:19:41;;;;;;;12.77;5.00;;;;;;;-143.48;90.14;77881.28;5056607;28;20094;-73
2022/11/16 08:22:06;;;;;;;9.98;4.82;;;;;;;-143.48;89.82;77873.38;5056889;28;20021;-73
2022/11/16 08:24:32;;;;;;;9.77;4.55;;;;;;;-143.48;89.91;77863.44;5056228;28;20518;-74
2022/11/16 08:26:57;;;;;;;12.55;5.15;;;;;;;-143.48;89.54;77865.44;5055386;28;20036;-73
2022/11/16 08:29:24;;;;;;;13.50;4.60;;;;;;;-143.48;89.42;77865.44;5055439;28;20395;-74
2022/11/16 08:31:49;;;;;;;12.10;4.88;;;;;;;-143.48;89.22;77887.25;5056242;28;20029;-73
2022/11/16 08:34:15;;;;;;;9.85;4.55;;;;;;;-143.48;89.90;77889.22;5066128;28;20405;-74
2022/11/16 08:36:40;;;;;;;10.80;4.00;;;;;;;-143.48;89.25;77873.38;5074704;28;20476;-73
2022/11/16 08:39:06;;;;;;;9.00;4.50;;;;;;;-143.48;89.45;77863.44;5060587;28;20045;-74
2022/11/16 08:41:31;;;;;;;8.68;3.58;;;;;;;-143.48;88.92;77879.31;5057034;28;20029;-72
2022/11/16 08:43:58;;;;;;;7.90;3.75;;;;;;;-143.48;88.55;77883.28;5057130;28;20492;-73
2022/11/16 08:46:23;;;;;;;12.63;3.70;;;;;;;-143.48;88.61;77873.38;5057347;28;20072;-73
2022/11/16 08:48:48;;;;;;;15.98;4.10;;;;;;;-143.48;88.35;77873.38;5056651;28;20402;-73
2022/11/16 08:51:16;;;;;;;13.88;4.07;;;;;;;-143.48;88.18;77879.31;5054631;28;20040;-73
2022/11/16 08:53:42;;;;;;;9.00;3.20;;;;;;;-143.48;87.73;77847.59;5056031;28;20049;-74
2022/11/16 08:56:13;;;;;;;10.10;3.50;;;;;;;-143.48;86.74;77859.47;5056171;28;20048;-73
2022/11/16 08:58:42;;;;;;;13.32;3.63;;;;;;;-143.48;86.17;77817.84;5054751;28;20044;-73
2022/11/16 09:01:10;;;;;;;9.15;2.92;;;;;;;-143.48;85.21;77841.63;5054654;28;20139;-73
2022/11/16 09:03:37;;;;;;;14.18;3.55;;;;;;;-143.48;86.50;77857.50;5054442;28;20388;-73
2022/11/16 09:06:02;;;;;;;14.68;4.03;;;;;;;-143.48;86.15;77843.63;5054486;28;20021;-73
2022/11/16 09:08:27;;;;;;;10.98;3.40;;;;;;;-143.48;85.63;77823.78;5055990;28;20587;-72
2022/11/16 09:10:53;;;;;;;13.65;3.08;;;;;;;-143.48;85.71;77829.75;5055722;28;20135;-69
2022/11/16 09:13:18;;;;;;;10.77;2.92;;;;;;;-143.48;84.87;77823.78;5054028;28;20100;-69
2022/11/16 09:15:43;;;;;;;9.18;2.92;;;;;;;-143.48;83.20;77803.97;5055291;28;20073;-69
2022/11/16 09:18:09;;;;;;;11.88;3.38;;;;;;;-143.48;83.90;77823.78;5053918;28;20040;-69
2022/11/16 09:20:34;;;;;;;13.57;3.30;;;;;;;-143.48;82.45;77776.19;5055146;28;20040;-70
2022/11/16 09:22:59;;;;;;;13.88;3.38;;;;;;;-143.48;81.28;77770.25;5055473;28;20558;-70
2022/11/16 09:25:25;;;;;;;13.52;3.42;;;;;;;-143.48;81.36;77762.31;5055792;28;20104;-71
2022/11/16 09:27:53;;;;;;;15.45;3.58;;;;;;;-143.48;79.46;77702.84;5053985;28;20117;-70
2022/11/16 09:30:18;;;;;;;7.68;2.95;;;;;;;-143.48;79.05;77726.63;5053724;28;20499;-70
2022/11/16 09:32:43;;;;;;;13.60;3.55;;;;;;;-143.48;78.88;77738.53;5056692;28;20052;-68
2022/11/16 09:35:10;;;;;;;13.57;3.25;;;;;;;-143.48;76.72;77611.63;5055961;28;20051;-72
2022/11/16 09:37:35;;;;;;;11.93;3.28;;;;;;;-143.48;80.27;77784.13;5056973;28;20029;-74
2022/11/16 09:40:00;;;;;;;14.85;4.47;;;;;;;-143.48;81.10;77770.25;5054820;28;20096;-69
2022/11/16 09:42:46;;;;;;;12.05;3.60;;;;;;;-143.48;80.71;77768.25;5055397;28;20416;-69
2022/11/16 09:45:31;;;;;;;12.00;4.00;;;;;;;-143.48;79.61;77706.78;5055139;28;20057;-69
2022/11/16 09:48:01;;;;;;;10.68;4.10;;;;;;;-143.48;80.03;77776.19;5053347;28;20016;-69
2022/11/16 09:50:33;;;;;;;11.98;3.90;;;;;;;-143.48;81.44;77798.00;5054673;28;20361;-72
2022/11/16 09:53:25;;;;;;;12.88;3.92;;;;;;;-143.48;76.75;77730.59;5057058;28;20083;-72
2022/11/16 09:55:52;;;;;;;10.98;4.05;;;;;;;-143.48;76.85;77750.41;5044136;28;20033;-70
2022/11/16 09:58:46;;;;;;;13.00;4.32;;;;;;;-143.48;73.95;77532.31;5055689;28;20053;-70
2022/11/16 10:01:47;;;;;;;15.55;3.88;;;;;;;-143.48;66.00;77453.00;5055653;28;20025;-68
2022/11/16 10:04:37;;;;;;;10.23;3.85;;;;;;;-143.48;71.08;77593.78;5055651;28;20108;-69
2022/11/16 10:07:13;;;;;;;11.98;3.70;;;;;;;-143.48;72.40;77657.22;5054502;28;20021;-68
2022/11/16 10:09:38;;;;;;;9.73;3.60;;;;;;;-143.48;65.96;77478.78;5053519;28;20055;-71
2022/11/16 10:12:16;;;;;;;11.38;3.40;;;;;;;-143.48;69.15;77581.88;5055516;28;20037;-70
2022/11/16 10:15:03;;;;;;;12.43;3.47;;;;;;;-143.48;59.99;77276.53;5052513;28;20064;-70
2022/11/16 10:17:50;;;;;;;8.45;2.80;;;;;;;-143.48;64.22;77488.69;5054652;28;20460;-71
2022/11/16 10:21:00;;;;;;;11.73;3.20;;;;;;;-143.48;59.89;77288.44;5054743;28;20025;-71
2022/11/16 10:23:55;;;;;;;10.13;2.90;;;;;;;-143.48;51.44;76977.16;5054633;28;20031;-70
2022/11/16 10:26:29;;;;;;;11.57;3.08;;;;;;;-143.48;49.70;76945.44;5054609;28;20028;-71
2022/11/16 10:29:19;;;;;;;9.25;2.63;;;;;;;-143.48;47.74;76909.75;5055005;28;20384;-71
2022/11/16 10:32:24;;;;;;;9.18;2.70;;;;;;;-143.48;55.39;77272.56;5055768;28;20452;-71
2022/11/16 10:34:59;;;;;;;12.50;2.88;;;;;;;-143.48;56.74;77179.38;5055639;28;20029;-70
2022/11/16 10:37:29;;;;;;;7.57;2.80;;;;;;;-143.48;52.63;77183.34;5058531;28;20035;-70
2022/11/16 10:39:55;;;;;;;5.57;2.42;;;;;;;-143.48;50.47;77000.94;5058018;28;20468;-73
2022/11/16 10:42:38;;;;;;;11.80;2.95;;;;;;;-143.48;49.55;76941.47;5057103;28;20032;-71
2022/11/16 10:45:09;;;;;;;10.43;2.28;;;;;;;-143.48;51.76;77125.84;5056984;28;20025;-71
2022/11/16 10:47:45;;;;;;;10.70;2.63;;;;;;;-143.48;49.54;76949.41;5056107;28;20384;-71
2022/11/16 10:50:31;;;;;;;12.23;2.55;;;;;;;-143.48;51.86;77143.69;5053978;28;20175;-71
2022/11/16 10:52:57;;;;;;;8.73;2.53;;;;;;;-143.48;50.73;77008.88;5056322;28;20028;-71
2022/11/16 10:55:23;;;;;;;8.25;2.42;;;;;;;-143.48;48.94;76917.69;5056142;28;20025;-71
2022/11/16 10:57:59;;;;;;;9.70;2.30;;;;;;;-143.48;44.82;76719.44;5057206;28;20415;-71
2022/11/16 11:00:39;;;;;;;10.38;2.90;;;;;;;-143.48;49.06;77016.81;5053778;28;20044;-71
2022/11/16 11:03:05;;;;;;;9.70;2.33;;;;;;;-143.48;46.93;76891.91;5054561;28;20031;-72
2022/11/16 11:05:33;;;;;;;7.65;1.98;;;;;;;-143.48;45.72;76883.97;5053386;28;20020;-71
2022/11/16 11:08:05;;;;;;;8.50;2.03;;;;;;;-143.48;45.35;76810.63;5055744;28;20033;-71
2022/11/16 11:10:31;;;;;;;;;;;;;;;-143.48;42.40;76584.63;5055221;28;20024;-71
2022/11/16 11:13:09;;;;;;;10.32;2.30;;;;;;;-143.48;45.00;76844.34;5052356;28;19909;-71
2022/11/16 11:15:35;;;;;;;8.98;2.28;;;;;;;-143.48;45.93;76883.97;5054069;28;20029;-72
2022/11/16 11:18:22;;;;;;;10.80;2.47;;;;;;;-143.48;44.57;76848.28;5052550;28;20024;-71
2022/11/16 11:21:04;;;;;;;9.93;2.38;;;;;;;-143.48;43.75;76806.66;5053613;28;20063;-72
2022/11/16 11:23:36;;;;;;;7.63;2.10;;;;;;;-143.48;53.51;77276.53;5052010;28;20044;-71
2022/11/16 11:26:01;;;;;;;9.63;2.38;;;;;;;-143.48;53.15;77201.19;5052276;28;20051;-71
2022/11/16 11:28:33;;;;;;;9.27;2.33;;;;;;;-143.48;51.78;77175.41;5051158;28;20017;-71
2022/11/16 11:31:03;;;;;;;9.35;2.70;;;;;;;-143.48;47.91;76967.25;5051990;28;20029;-71
2022/11/16 11:33:33;;;;;;;9.57;2.40;;;;;;;-143.48;48.13;77078.28;5053319;28;20072;-71
2022/11/16 11:36:03;;;;;;;15.25;2.65;;;;;;;-143.48;45.01;76782.88;5053505;28;20036;-71
2022/11/16 11:38:30;;;;;;;9.65;2.20;;;;;;;-143.48;48.25;77060.44;5055118;28;20099;-72
2022/11/16 11:41:00;;;;;;;12.07;2.22;;;;;;;-143.48;56.98;77381.63;5053856;28;20480;-72
2022/11/16 11:43:27;;;;;;;11.45;2.35;;;;;;;-143.48;59.71;77441.09;5052611;28;20040;-72
2022/11/16 11:46:11;;;;;;;8.25;2.13;;;;;;;-143.48;59.28;77443.09;5056073;28;20066;-71
2022/11/16 11:48:53;;;;;;;15.15;2.40;;;;;;;-143.48;61.85;77524.38;5057267;28;20041;-71
2022/11/16 11:51:26;;;;;;;11.90;2.30;;;;;;;-143.48;59.17;77395.50;5056227;28;20345;-73
2022/11/16 11:53:55;;;;;;;10.95;2.08;;;;;;;-143.48;62.60;77524.38;5055126;28;20033;-71
2022/11/16 11:56:22;;;;;;;10.95;2.33;;;;;;;-143.48;57.29;77324.13;5056268;28;20369;-71
2022/11/16 11:58:48;;;;;;;9.10;2.10;;;;;;;-143.48;58.15;77326.09;5054661;28;20551;-71
2022/11/16 12:02:01;;;;;;;13.35;2.50;;;;;;;-143.48;51.88;77137.75;5056352;28;20035;-71
2022/11/16 12:05:05;;;;;;;9.05;1.73;;;;;;;-143.48;58.98;77454.97;5047069;28;20504;-74
2022/11/16 12:07:53;;;;;;;7.03;2.30;;;;;;;-143.48;64.56;77591.78;5037618;28;20116;-72